sensor_id;sensor_type;location;lat;lon;timestamp;P1;durP1;ratioP1;P2;durP2;ratioP2
2650;SDS011;1335;48.180;16.342;2022-09-21T00:01:25;3.30;;;2.10;;
2650;SDS011;1335;48.180;16.342;2022-09-21T00:04:02;2.30;;;1.93;;
2650;SDS011;1335;48.180;16.342;2022-09-21T00:06:30;2.30;;;2.10;;
2650;SDS011;1335;48.180;16.342;2022-09-21T00:08:59;2.10;;;1.90;;
2650;SDS011;1335;48.180;16.342;2022-09-21T00:11:29;2.00;;;1.73;;
2650;SDS011;1335;48.180;16.342;2022-09-21T00:13:58;4.07;;;2.00;;
2650;SDS011;1335;48.180;16.342;2022-09-21T00:16:29;2.90;;;2.03;;
2650;SDS011;1335;48.180;16.342;2022-09-21T00:18:57;1.67;;;1.57;;
2650;SDS011;1335;48.180;16.342;2022-09-21T00:21:29;1.73;;;1.60;;
2650;SDS011;1335;48.180;16.342;2022-09-21T00:23:58;3.27;;;2.20;;
2650;SDS011;1335;48.180;16.342;2022-09-21T00:26:27;2.10;;;1.90;;
2650;SDS011;1335;48.180;16.342;2022-09-21T00:28:55;3.00;;;1.90;;
2650;SDS011;1335;48.180;16.342;2022-09-21T00:31:24;2.30;;;1.53;;
2650;SDS011;1335;48.180;16.342;2022-09-21T00:33:53;2.10;;;1.90;;
2650;SDS011;1335;48.180;16.342;2022-09-21T00:36:20;4.50;;;2.10;;
2650;SDS011;1335;48.180;16.342;2022-09-21T00:38:51;1.90;;;1.60;;
2650;SDS011;1335;48.180;16.342;2022-09-21T00:41:19;2.00;;;1.80;;
2650;SDS011;1335;48.180;16.342;2022-09-21T00:43:48;2.00;;;1.90;;
2650;SDS011;1335;48.180;16.342;2022-09-21T00:46:35;1.93;;;1.83;;
2650;SDS011;1335;48.180;16.342;2022-09-21T00:49:04;2.10;;;1.90;;
2650;SDS011;1335;48.180;16.342;2022-09-21T00:51:32;2.10;;;1.70;;
2650;SDS011;1335;48.180;16.342;2022-09-21T00:54:02;8.27;;;2.60;;
2650;SDS011;1335;48.180;16.342;2022-09-21T00:56:33;4.07;;;2.57;;
2650;SDS011;1335;48.180;16.342;2022-09-21T00:59:02;4.43;;;1.60;;
2650;SDS011;1335;48.180;16.342;2022-09-21T01:01:31;1.97;;;1.83;;
2650;SDS011;1335;48.180;16.342;2022-09-21T01:03:58;3.47;;;2.20;;
2650;SDS011;1335;48.180;16.342;2022-09-21T01:06:26;2.80;;;1.67;;
2650;SDS011;1335;48.180;16.342;2022-09-21T01:08:54;3.03;;;2.57;;
2650;SDS011;1335;48.180;16.342;2022-09-21T01:11:31;2.00;;;1.73;;
2650;SDS011;1335;48.180;16.342;2022-09-21T01:14:10;5.37;;;2.50;;
2650;SDS011;1335;48.180;16.342;2022-09-21T01:16:50;2.10;;;2.00;;
2650;SDS011;1335;48.180;16.342;2022-09-21T01:19:31;7.50;;;1.43;;
2650;SDS011;1335;48.180;16.342;2022-09-21T01:22:25;2.60;;;1.83;;
2650;SDS011;1335;48.180;16.342;2022-09-21T01:25:07;2.07;;;1.70;;
2650;SDS011;1335;48.180;16.342;2022-09-21T01:27:51;2.43;;;2.17;;
2650;SDS011;1335;48.180;16.342;2022-09-21T01:30:28;3.57;;;1.90;;
2650;SDS011;1335;48.180;16.342;2022-09-21T01:33:02;2.27;;;1.90;;
2650;SDS011;1335;48.180;16.342;2022-09-21T01:35:35;4.53;;;2.43;;
2650;SDS011;1335;48.180;16.342;2022-09-21T01:38:07;3.00;;;2.67;;
2650;SDS011;1335;48.180;16.342;2022-09-21T01:40:37;1.73;;;1.60;;
2650;SDS011;1335;48.180;16.342;2022-09-21T01:43:08;2.93;;;2.00;;
2650;SDS011;1335;48.180;16.342;2022-09-21T01:45:41;2.83;;;2.30;;
2650;SDS011;1335;48.180;16.342;2022-09-21T01:48:12;2.67;;;1.97;;
2650;SDS011;1335;48.180;16.342;2022-09-21T01:50:42;2.00;;;1.90;;
2650;SDS011;1335;48.180;16.342;2022-09-21T01:53:14;1.97;;;1.87;;
2650;SDS011;1335;48.180;16.342;2022-09-21T01:55:47;2.50;;;2.30;;
2650;SDS011;1335;48.180;16.342;2022-09-21T01:58:17;5.10;;;2.13;;
2650;SDS011;1335;48.180;16.342;2022-09-21T02:00:54;4.10;;;2.23;;
2650;SDS011;1335;48.180;16.342;2022-09-21T02:03:24;1.90;;;1.80;;
2650;SDS011;1335;48.180;16.342;2022-09-21T02:05:55;2.20;;;2.00;;
2650;SDS011;1335;48.180;16.342;2022-09-21T02:08:23;2.47;;;2.27;;
2650;SDS011;1335;48.180;16.342;2022-09-21T02:10:52;2.40;;;2.20;;
2650;SDS011;1335;48.180;16.342;2022-09-21T02:13:22;2.90;;;2.10;;
2650;SDS011;1335;48.180;16.342;2022-09-21T02:15:57;2.47;;;2.10;;
2650;SDS011;1335;48.180;16.342;2022-09-21T02:18:36;2.93;;;1.77;;
2650;SDS011;1335;48.180;16.342;2022-09-21T02:21:14;8.40;;;1.67;;
2650;SDS011;1335;48.180;16.342;2022-09-21T02:23:50;3.23;;;1.97;;
2650;SDS011;1335;48.180;16.342;2022-09-21T02:26:28;5.63;;;1.53;;
2650;SDS011;1335;48.180;16.342;2022-09-21T02:29:00;1.70;;;1.60;;
2650;SDS011;1335;48.180;16.342;2022-09-21T02:31:47;3.77;;;1.57;;
2650;SDS011;1335;48.180;16.342;2022-09-21T02:34:18;2.97;;;1.90;;
2650;SDS011;1335;48.180;16.342;2022-09-21T02:36:53;1.70;;;1.43;;
2650;SDS011;1335;48.180;16.342;2022-09-21T02:39:25;2.93;;;1.53;;
2650;SDS011;1335;48.180;16.342;2022-09-21T02:42:00;1.50;;;1.40;;
2650;SDS011;1335;48.180;16.342;2022-09-21T02:44:33;3.40;;;1.97;;
2650;SDS011;1335;48.180;16.342;2022-09-21T02:47:08;1.80;;;1.70;;
2650;SDS011;1335;48.180;16.342;2022-09-21T02:49:40;4.23;;;1.50;;
2650;SDS011;1335;48.180;16.342;2022-09-21T02:52:12;4.30;;;2.43;;
2650;SDS011;1335;48.180;16.342;2022-09-21T02:54:42;1.73;;;1.63;;
2650;SDS011;1335;48.180;16.342;2022-09-21T02:57:15;6.27;;;2.60;;
2650;SDS011;1335;48.180;16.342;2022-09-21T02:59:44;5.70;;;2.13;;
2650;SDS011;1335;48.180;16.342;2022-09-21T03:02:13;2.17;;;1.97;;
2650;SDS011;1335;48.180;16.342;2022-09-21T03:04:40;2.60;;;1.50;;
2650;SDS011;1335;48.180;16.342;2022-09-21T03:07:11;1.83;;;1.73;;
2650;SDS011;1335;48.180;16.342;2022-09-21T03:09:39;2.33;;;1.60;;
2650;SDS011;1335;48.180;16.342;2022-09-21T03:12:06;2.10;;;1.90;;
2650;SDS011;1335;48.180;16.342;2022-09-21T03:14:34;1.83;;;1.73;;
2650;SDS011;1335;48.180;16.342;2022-09-21T03:17:01;1.80;;;1.70;;
2650;SDS011;1335;48.180;16.342;2022-09-21T03:19:31;1.87;;;1.77;;
2650;SDS011;1335;48.180;16.342;2022-09-21T03:21:59;3.00;;;2.00;;
2650;SDS011;1335;48.180;16.342;2022-09-21T03:24:27;2.30;;;1.80;;
2650;SDS011;1335;48.180;16.342;2022-09-21T03:27:13;1.80;;;1.70;;
2650;SDS011;1335;48.180;16.342;2022-09-21T03:29:41;2.03;;;1.87;;
2650;SDS011;1335;48.180;16.342;2022-09-21T03:32:09;6.57;;;2.17;;
2650;SDS011;1335;48.180;16.342;2022-09-21T03:34:40;1.77;;;1.67;;
2650;SDS011;1335;48.180;16.342;2022-09-21T03:37:09;8.03;;;3.00;;
2650;SDS011;1335;48.180;16.342;2022-09-21T03:39:37;3.00;;;2.77;;
2650;SDS011;1335;48.180;16.342;2022-09-21T03:42:04;4.73;;;2.87;;
2650;SDS011;1335;48.180;16.342;2022-09-21T03:44:33;3.53;;;2.40;;
2650;SDS011;1335;48.180;16.342;2022-09-21T03:47:01;2.87;;;2.30;;
2650;SDS011;1335;48.180;16.342;2022-09-21T03:49:30;4.40;;;2.30;;
2650;SDS011;1335;48.180;16.342;2022-09-21T03:52:03;2.43;;;2.23;;
2650;SDS011;1335;48.180;16.342;2022-09-21T03:54:30;3.63;;;2.43;;
2650;SDS011;1335;48.180;16.342;2022-09-21T03:56:58;2.37;;;2.17;;
2650;SDS011;1335;48.180;16.342;2022-09-21T03:59:25;2.97;;;2.03;;
2650;SDS011;1335;48.180;16.342;2022-09-21T04:01:52;4.47;;;2.60;;
2650;SDS011;1335;48.180;16.342;2022-09-21T04:04:20;3.40;;;3.10;;
2650;SDS011;1335;48.180;16.342;2022-09-21T04:06:47;4.47;;;3.33;;
2650;SDS011;1335;48.180;16.342;2022-09-21T04:09:17;3.63;;;3.33;;
2650;SDS011;1335;48.180;16.342;2022-09-21T04:11:58;4.30;;;3.07;;
2650;SDS011;1335;48.180;16.342;2022-09-21T04:14:37;5.50;;;5.00;;
2650;SDS011;1335;48.180;16.342;2022-09-21T04:17:06;3.43;;;2.77;;
2650;SDS011;1335;48.180;16.342;2022-09-21T04:19:33;3.87;;;3.30;;
2650;SDS011;1335;48.180;16.342;2022-09-21T04:22:14;4.13;;;3.23;;
2650;SDS011;1335;48.180;16.342;2022-09-21T04:24:44;4.20;;;3.00;;
2650;SDS011;1335;48.180;16.342;2022-09-21T04:27:13;6.20;;;3.30;;
2650;SDS011;1335;48.180;16.342;2022-09-21T04:29:54;4.70;;;3.87;;
2650;SDS011;1335;48.180;16.342;2022-09-21T04:32:26;4.10;;;3.80;;
2650;SDS011;1335;48.180;16.342;2022-09-21T04:35:07;4.63;;;3.43;;
2650;SDS011;1335;48.180;16.342;2022-09-21T04:37:39;4.07;;;3.77;;
2650;SDS011;1335;48.180;16.342;2022-09-21T04:43:07;4.70;;;4.30;;
2650;SDS011;1335;48.180;16.342;2022-09-21T04:45:55;8.03;;;4.37;;
2650;SDS011;1335;48.180;16.342;2022-09-21T04:48:31;7.20;;;4.40;;
2650;SDS011;1335;48.180;16.342;2022-09-21T04:51:14;8.60;;;5.33;;
2650;SDS011;1335;48.180;16.342;2022-09-21T04:53:43;9.87;;;4.50;;
2650;SDS011;1335;48.180;16.342;2022-09-21T04:56:18;5.67;;;4.97;;
2650;SDS011;1335;48.180;16.342;2022-09-21T04:59:02;5.77;;;5.10;;
2650;SDS011;1335;48.180;16.342;2022-09-21T05:01:31;6.40;;;5.27;;
2650;SDS011;1335;48.180;16.342;2022-09-21T05:04:09;12.90;;;5.60;;
2650;SDS011;1335;48.180;16.342;2022-09-21T05:06:50;5.27;;;4.87;;
2650;SDS011;1335;48.180;16.342;2022-09-21T05:09:23;5.80;;;5.30;;
2650;SDS011;1335;48.180;16.342;2022-09-21T05:21:24;6.53;;;5.20;;
2650;SDS011;1335;48.180;16.342;2022-09-21T05:24:08;7.40;;;5.93;;
2650;SDS011;1335;48.180;16.342;2022-09-21T05:26:36;7.40;;;6.00;;
2650;SDS011;1335;48.180;16.342;2022-09-21T05:29:18;7.00;;;5.43;;
2650;SDS011;1335;48.180;16.342;2022-09-21T05:32:02;5.50;;;5.03;;
2650;SDS011;1335;48.180;16.342;2022-09-21T05:40:41;5.83;;;5.23;;
2650;SDS011;1335;48.180;16.342;2022-09-21T05:43:23;4.30;;;3.73;;
2650;SDS011;1335;48.180;16.342;2022-09-21T05:45:54;6.00;;;4.50;;
2650;SDS011;1335;48.180;16.342;2022-09-21T05:48:27;7.57;;;4.40;;
2650;SDS011;1335;48.180;16.342;2022-09-21T05:51:02;5.90;;;4.40;;
2650;SDS011;1335;48.180;16.342;2022-09-21T05:56:57;5.17;;;4.77;;
2650;SDS011;1335;48.180;16.342;2022-09-21T05:59:48;5.00;;;3.90;;
2650;SDS011;1335;48.180;16.342;2022-09-21T06:02:25;4.43;;;3.43;;
2650;SDS011;1335;48.180;16.342;2022-09-21T06:05:26;5.00;;;3.33;;
2650;SDS011;1335;48.180;16.342;2022-09-21T06:07:54;2.57;;;2.37;;
2650;SDS011;1335;48.180;16.342;2022-09-21T06:10:26;6.00;;;3.70;;
2650;SDS011;1335;48.180;16.342;2022-09-21T06:18:44;2.33;;;2.13;;
2650;SDS011;1335;48.180;16.342;2022-09-21T06:21:29;5.10;;;3.00;;
2650;SDS011;1335;48.180;16.342;2022-09-21T06:23:59;4.80;;;2.50;;
2650;SDS011;1335;48.180;16.342;2022-09-21T06:26:27;4.80;;;2.77;;
2650;SDS011;1335;48.180;16.342;2022-09-21T06:29:07;3.50;;;2.70;;
2650;SDS011;1335;48.180;16.342;2022-09-21T06:31:38;3.07;;;2.60;;
2650;SDS011;1335;48.180;16.342;2022-09-21T06:34:06;5.40;;;2.33;;
2650;SDS011;1335;48.180;16.342;2022-09-21T06:36:36;3.10;;;2.57;;
2650;SDS011;1335;48.180;16.342;2022-09-21T06:39:17;3.70;;;3.00;;
2650;SDS011;1335;48.180;16.342;2022-09-21T06:44:43;3.90;;;2.70;;
2650;SDS011;1335;48.180;16.342;2022-09-21T06:53:47;4.63;;;3.20;;
2650;SDS011;1335;48.180;16.342;2022-09-21T06:56:31;5.63;;;3.33;;
2650;SDS011;1335;48.180;16.342;2022-09-21T06:59:14;3.13;;;2.83;;
2650;SDS011;1335;48.180;16.342;2022-09-21T07:02:01;6.80;;;3.07;;
2650;SDS011;1335;48.180;16.342;2022-09-21T07:04:29;2.90;;;2.40;;
2650;SDS011;1335;48.180;16.342;2022-09-21T07:26:36;3.20;;;2.90;;
2650;SDS011;1335;48.180;16.342;2022-09-21T07:29:06;3.20;;;2.00;;
2650;SDS011;1335;48.180;16.342;2022-09-21T07:31:48;2.37;;;2.13;;
2650;SDS011;1335;48.180;16.342;2022-09-21T07:34:16;2.60;;;2.40;;
2650;SDS011;1335;48.180;16.342;2022-09-21T07:36:46;2.13;;;1.93;;
2650;SDS011;1335;48.180;16.342;2022-09-21T07:39:29;2.70;;;2.23;;
2650;SDS011;1335;48.180;16.342;2022-09-21T07:45:34;2.27;;;1.87;;
2650;SDS011;1335;48.180;16.342;2022-09-21T07:48:15;3.13;;;2.40;;
2650;SDS011;1335;48.180;16.342;2022-09-21T07:50:43;2.63;;;2.43;;
2650;SDS011;1335;48.180;16.342;2022-09-21T07:53:11;6.50;;;2.57;;
2650;SDS011;1335;48.180;16.342;2022-09-21T07:55:52;3.47;;;2.90;;
2650;SDS011;1335;48.180;16.342;2022-09-21T07:58:29;3.07;;;2.53;;
2650;SDS011;1335;48.180;16.342;2022-09-21T08:04:16;3.00;;;2.80;;
2650;SDS011;1335;48.180;16.342;2022-09-21T08:06:53;2.47;;;2.27;;
2650;SDS011;1335;48.180;16.342;2022-09-21T08:09:22;2.80;;;2.60;;
2650;SDS011;1335;48.180;16.342;2022-09-21T08:11:54;3.93;;;2.63;;
2650;SDS011;1335;48.180;16.342;2022-09-21T08:14:36;4.37;;;2.80;;
2650;SDS011;1335;48.180;16.342;2022-09-21T08:17:17;4.00;;;3.00;;
2650;SDS011;1335;48.180;16.342;2022-09-21T08:19:57;3.90;;;3.13;;
2650;SDS011;1335;48.180;16.342;2022-09-21T08:22:27;3.83;;;2.40;;
2650;SDS011;1335;48.180;16.342;2022-09-21T08:24:59;3.27;;;2.73;;
2650;SDS011;1335;48.180;16.342;2022-09-21T08:27:39;4.40;;;3.03;;
2650;SDS011;1335;48.180;16.342;2022-09-21T08:30:11;6.20;;;3.80;;
2650;SDS011;1335;48.180;16.342;2022-09-21T08:32:48;5.30;;;2.80;;
2650;SDS011;1335;48.180;16.342;2022-09-21T08:38:35;2.60;;;2.40;;
2650;SDS011;1335;48.180;16.342;2022-09-21T08:41:09;4.07;;;3.50;;
2650;SDS011;1335;48.180;16.342;2022-09-21T08:43:42;5.57;;;3.13;;
2650;SDS011;1335;48.180;16.342;2022-09-21T08:46:19;2.93;;;2.70;;
2650;SDS011;1335;48.180;16.342;2022-09-21T08:48:53;2.93;;;2.53;;
2650;SDS011;1335;48.180;16.342;2022-09-21T08:54:33;4.10;;;2.07;;
2650;SDS011;1335;48.180;16.342;2022-09-21T08:57:16;2.90;;;2.20;;
2650;SDS011;1335;48.180;16.342;2022-09-21T08:59:45;3.47;;;2.53;;
2650;SDS011;1335;48.180;16.342;2022-09-21T09:02:23;2.97;;;2.53;;
2650;SDS011;1335;48.180;16.342;2022-09-21T09:05:22;3.27;;;2.60;;
2650;SDS011;1335;48.180;16.342;2022-09-21T09:11:18;2.93;;;2.13;;
2650;SDS011;1335;48.180;16.342;2022-09-21T09:14:04;2.03;;;1.77;;
2650;SDS011;1335;48.180;16.342;2022-09-21T09:17:17;1.80;;;1.70;;
2650;SDS011;1335;48.180;16.342;2022-09-21T09:19:59;1.70;;;1.60;;
2650;SDS011;1335;48.180;16.342;2022-09-21T09:22:35;1.43;;;1.40;;
2650;SDS011;1335;48.180;16.342;2022-09-21T09:25:20;2.00;;;1.80;;
2650;SDS011;1335;48.180;16.342;2022-09-21T09:27:51;4.07;;;2.20;;
2650;SDS011;1335;48.180;16.342;2022-09-21T09:30:23;1.90;;;1.77;;
2650;SDS011;1335;48.180;16.342;2022-09-21T09:32:55;2.27;;;2.00;;
2650;SDS011;1335;48.180;16.342;2022-09-21T09:35:32;3.60;;;1.97;;
2650;SDS011;1335;48.180;16.342;2022-09-21T09:38:20;2.13;;;1.80;;
2650;SDS011;1335;48.180;16.342;2022-09-21T09:41:16;7.00;;;2.57;;
2650;SDS011;1335;48.180;16.342;2022-09-21T09:53:14;1.73;;;1.53;;
2650;SDS011;1335;48.180;16.342;2022-09-21T09:55:44;3.73;;;2.57;;
2650;SDS011;1335;48.180;16.342;2022-09-21T09:58:19;4.87;;;2.40;;
2650;SDS011;1335;48.180;16.342;2022-09-21T10:00:50;1.97;;;1.60;;
2650;SDS011;1335;48.180;16.342;2022-09-21T10:03:21;2.50;;;1.60;;
2650;SDS011;1335;48.180;16.342;2022-09-21T10:05:57;6.20;;;2.00;;
2650;SDS011;1335;48.180;16.342;2022-09-21T10:08:40;3.67;;;1.93;;
2650;SDS011;1335;48.180;16.342;2022-09-21T10:11:23;3.37;;;1.97;;
2650;SDS011;1335;48.180;16.342;2022-09-21T10:14:09;2.10;;;1.93;;
2650;SDS011;1335;48.180;16.342;2022-09-21T10:16:58;1.60;;;1.50;;
2650;SDS011;1335;48.180;16.342;2022-09-21T10:19:46;1.40;;;1.30;;
2650;SDS011;1335;48.180;16.342;2022-09-21T10:22:38;3.27;;;1.43;;
2650;SDS011;1335;48.180;16.342;2022-09-21T10:25:15;1.10;;;1.10;;
2650;SDS011;1335;48.180;16.342;2022-09-21T10:27:58;5.07;;;1.97;;
2650;SDS011;1335;48.180;16.342;2022-09-21T10:30:32;1.93;;;1.60;;
2650;SDS011;1335;48.180;16.342;2022-09-21T10:33:03;2.10;;;1.17;;
2650;SDS011;1335;48.180;16.342;2022-09-21T10:35:47;1.80;;;1.20;;
2650;SDS011;1335;48.180;16.342;2022-09-21T10:38:24;3.40;;;1.40;;
2650;SDS011;1335;48.180;16.342;2022-09-21T10:40:55;1.17;;;1.07;;
2650;SDS011;1335;48.180;16.342;2022-09-21T10:43:39;1.27;;;1.00;;
2650;SDS011;1335;48.180;16.342;2022-09-21T10:46:37;2.70;;;2.00;;
2650;SDS011;1335;48.180;16.342;2022-09-21T10:49:20;1.83;;;1.10;;
2650;SDS011;1335;48.180;16.342;2022-09-21T20:26:53;1.60;;;1.50;;
2650;SDS011;1335;48.180;16.342;2022-09-21T20:29:55;1.93;;;1.83;;
2650;SDS011;1335;48.180;16.342;2022-09-21T20:32:47;2.57;;;1.80;;
2650;SDS011;1335;48.180;16.342;2022-09-21T20:35:30;2.53;;;1.77;;
2650;SDS011;1335;48.180;16.342;2022-09-21T20:38:25;3.70;;;2.27;;
2650;SDS011;1335;48.180;16.342;2022-09-21T20:51:32;2.17;;;1.97;;
2650;SDS011;1335;48.180;16.342;2022-09-21T20:54:28;1.80;;;1.70;;
2650;SDS011;1335;48.180;16.342;2022-09-21T20:57:03;1.60;;;1.50;;
2650;SDS011;1335;48.180;16.342;2022-09-21T20:59:36;4.93;;;1.90;;
2650;SDS011;1335;48.180;16.342;2022-09-21T21:27:30;2.43;;;1.60;;
2650;SDS011;1335;48.180;16.342;2022-09-21T21:30:14;1.87;;;1.77;;
2650;SDS011;1335;48.180;16.342;2022-09-21T21:36:02;2.73;;;1.90;;
2650;SDS011;1335;48.180;16.342;2022-09-21T21:38:48;1.90;;;1.80;;
2650;SDS011;1335;48.180;16.342;2022-09-21T21:41:21;1.70;;;1.60;;
2650;SDS011;1335;48.180;16.342;2022-09-21T21:50:22;2.90;;;1.87;;
2650;SDS011;1335;48.180;16.342;2022-09-21T21:53:04;2.40;;;2.20;;
2650;SDS011;1335;48.180;16.342;2022-09-21T21:56:04;2.10;;;1.90;;
2650;SDS011;1335;48.180;16.342;2022-09-21T21:58:52;3.03;;;2.20;;
2650;SDS011;1335;48.180;16.342;2022-09-21T22:01:23;2.13;;;1.93;;
2650;SDS011;1335;48.180;16.342;2022-09-21T22:03:57;4.03;;;2.93;;
2650;SDS011;1335;48.180;16.342;2022-09-21T22:09:50;3.37;;;2.13;;
2650;SDS011;1335;48.180;16.342;2022-09-21T22:12:32;2.67;;;1.90;;
2650;SDS011;1335;48.180;16.342;2022-09-21T22:15:00;2.30;;;2.10;;
2650;SDS011;1335;48.180;16.342;2022-09-21T22:17:50;2.83;;;1.73;;
2650;SDS011;1335;48.180;16.342;2022-09-21T22:20:52;2.17;;;1.93;;
2650;SDS011;1335;48.180;16.342;2022-09-21T22:23:32;3.97;;;3.00;;
2650;SDS011;1335;48.180;16.342;2022-09-21T22:29:20;2.30;;;2.10;;
2650;SDS011;1335;48.180;16.342;2022-09-21T22:31:49;2.00;;;1.90;;
2650;SDS011;1335;48.180;16.342;2022-09-21T22:34:19;1.90;;;1.80;;
2650;SDS011;1335;48.180;16.342;2022-09-21T22:36:47;2.53;;;2.07;;
2650;SDS011;1335;48.180;16.342;2022-09-21T22:39:15;1.93;;;1.80;;
2650;SDS011;1335;48.180;16.342;2022-09-21T22:41:43;2.50;;;1.90;;
2650;SDS011;1335;48.180;16.342;2022-09-21T22:44:11;3.97;;;2.00;;
2650;SDS011;1335;48.180;16.342;2022-09-21T22:46:40;1.70;;;1.60;;
2650;SDS011;1335;48.180;16.342;2022-09-21T22:49:08;2.80;;;2.13;;
2650;SDS011;1335;48.180;16.342;2022-09-21T22:51:36;3.87;;;2.37;;
2650;SDS011;1335;48.180;16.342;2022-09-21T22:54:04;2.03;;;1.93;;
2650;SDS011;1335;48.180;16.342;2022-09-21T22:56:32;1.63;;;1.53;;
2650;SDS011;1335;48.180;16.342;2022-09-21T22:59:07;2.20;;;2.00;;
2650;SDS011;1335;48.180;16.342;2022-09-21T23:01:36;2.97;;;2.00;;
2650;SDS011;1335;48.180;16.342;2022-09-21T23:04:13;1.70;;;1.60;;
2650;SDS011;1335;48.180;16.342;2022-09-21T23:06:45;6.60;;;2.30;;
2650;SDS011;1335;48.180;16.342;2022-09-21T23:09:16;3.33;;;2.00;;
2650;SDS011;1335;48.180;16.342;2022-09-21T23:11:46;2.20;;;1.73;;
2650;SDS011;1335;48.180;16.342;2022-09-21T23:14:17;3.40;;;2.67;;
2650;SDS011;1335;48.180;16.342;2022-09-21T23:16:46;3.00;;;2.67;;
2650;SDS011;1335;48.180;16.342;2022-09-21T23:22:10;2.73;;;1.97;;
2650;SDS011;1335;48.180;16.342;2022-09-21T23:24:38;2.00;;;1.80;;
2650;SDS011;1335;48.180;16.342;2022-09-21T23:27:05;2.83;;;2.00;;
2650;SDS011;1335;48.180;16.342;2022-09-21T23:29:33;2.70;;;1.77;;
2650;SDS011;1335;48.180;16.342;2022-09-21T23:32:02;2.50;;;1.70;;
2650;SDS011;1335;48.180;16.342;2022-09-21T23:34:46;1.77;;;1.33;;
2650;SDS011;1335;48.180;16.342;2022-09-21T23:37:22;2.50;;;1.63;;
2650;SDS011;1335;48.180;16.342;2022-09-21T23:39:56;1.60;;;1.50;;
2650;SDS011;1335;48.180;16.342;2022-09-21T23:42:25;2.30;;;1.80;;
2650;SDS011;1335;48.180;16.342;2022-09-21T23:44:53;1.80;;;1.70;;
2650;SDS011;1335;48.180;16.342;2022-09-21T23:47:22;2.10;;;2.00;;
2650;SDS011;1335;48.180;16.342;2022-09-21T23:49:54;1.50;;;1.40;;
2650;SDS011;1335;48.180;16.342;2022-09-21T23:52:24;2.13;;;2.00;;
2650;SDS011;1335;48.180;16.342;2022-09-21T23:55:07;2.33;;;1.50;;
2650;SDS011;1335;48.180;16.342;2022-09-21T23:57:44;2.00;;;1.80;;
